createdAt,value
2022-10-28T06:41:48.061Z,17.03
2022-10-28T06:46:54.855Z,17.90
2022-10-28T06:57:34.783Z,18.07
2022-10-28T07:02:58.641Z,16.20
2022-10-28T07:08:21.769Z,17.63
2022-10-28T07:13:27.453Z,17.77
2022-10-28T07:18:32.518Z,17.37
2022-10-28T07:23:36.090Z,18.47
2022-10-28T07:28:39.565Z,17.77
2022-10-28T07:33:44.895Z,16.57
2022-10-28T07:38:51.720Z,16.67
2022-10-28T07:43:55.259Z,17.43
2022-10-28T07:49:01.027Z,14.93
2022-10-28T08:00:16.089Z,17.00
2022-10-28T08:05:21.242Z,17.77
2022-10-28T08:10:24.890Z,17.70
2022-10-28T08:15:29.865Z,16.87
2022-10-28T08:20:35.015Z,17.60
2022-10-28T08:25:38.798Z,18.43
2022-10-28T08:30:57.039Z,18.00
2022-10-28T08:36:04.269Z,15.50
2022-10-28T08:41:17.120Z,13.20
2022-10-28T08:46:26.603Z,13.00
2022-10-28T08:51:38.248Z,15.63
2022-10-28T08:56:46.259Z,12.43
2022-10-28T09:01:52.263Z,13.17
2022-10-28T09:06:57.568Z,12.57
2022-10-28T09:12:12.624Z,28.40
2022-10-28T09:17:20.332Z,14.93
2022-10-28T09:22:28.858Z,12.20
2022-10-28T09:27:42.976Z,10.83
2022-10-28T09:32:50.432Z,15.53
2022-10-28T09:38:08.996Z,12.97
2022-10-28T09:43:26.141Z,11.57
2022-10-28T09:48:31.287Z,11.80
2022-10-28T09:53:43.398Z,12.23
2022-10-28T09:58:48.058Z,14.13
2022-10-28T10:03:52.582Z,12.33
2022-10-28T10:08:58.478Z,16.57
2022-10-28T10:14:06.452Z,10.83
2022-10-28T10:19:12.162Z,15.90
2022-10-28T10:24:30.285Z,13.17
2022-10-28T10:29:36.043Z,9.17
2022-10-28T10:34:40.495Z,9.77
2022-10-28T10:39:47.670Z,14.13
2022-10-28T10:45:03.411Z,11.23
2022-10-28T10:50:26.894Z,11.37
2022-10-28T10:55:38.216Z,9.90
2022-10-28T11:00:46.764Z,15.83
2022-10-28T11:06:05.330Z,12.10
2022-10-28T11:11:22.088Z,11.13
2022-10-28T11:16:26.555Z,12.77
2022-10-28T11:21:50.522Z,11.83
2022-10-28T11:26:59.920Z,10.40
2022-10-28T11:32:17.155Z,11.07
2022-10-28T11:37:27.663Z,9.57
2022-10-28T11:42:39.665Z,11.10
2022-10-28T11:48:02.903Z,10.63
2022-10-28T11:53:38.780Z,13.60
2022-10-28T11:58:54.241Z,11.20
2022-10-28T12:04:07.668Z,11.03
2022-10-28T12:09:22.558Z,8.07
2022-10-28T12:14:32.252Z,9.47
2022-10-28T12:19:39.872Z,10.93
2022-10-28T12:24:44.979Z,9.17
2022-10-28T12:29:52.531Z,9.80
2022-10-28T12:35:01.729Z,11.60
2022-10-28T12:40:09.480Z,8.43
2022-10-28T12:45:15.884Z,10.80
2022-10-28T12:50:25.824Z,10.17
2022-10-28T12:55:35.091Z,10.40
2022-10-28T13:00:46.614Z,10.40
2022-10-28T13:05:55.244Z,8.23
2022-10-28T13:11:13.667Z,8.47
2022-10-28T13:16:37.106Z,10.73
2022-10-28T13:21:57.375Z,11.00
2022-10-28T13:27:03.481Z,7.80
2022-10-28T13:32:08.445Z,8.33
2022-10-28T13:37:20.694Z,7.50
2022-10-28T13:42:48.179Z,9.50
2022-10-28T13:47:53.024Z,8.17
2022-10-28T13:53:29.932Z,11.00
2022-10-28T13:58:33.416Z,9.30
2022-10-28T14:03:40.265Z,9.73
2022-10-28T14:15:44.360Z,9.57
2022-10-28T14:35:57.858Z,13.50
2022-10-28T14:41:51.248Z,15.57
2022-10-28T14:47:21.064Z,14.37
2022-10-28T14:59:53.200Z,15.77
2022-10-28T15:05:03.916Z,17.43
2022-10-28T15:10:15.713Z,15.80
2022-10-28T15:15:22.995Z,16.40
2022-10-28T15:20:29.991Z,16.77
2022-10-28T15:25:33.489Z,15.43
2022-10-28T15:30:45.013Z,16.83
2022-10-28T15:35:51.379Z,17.30
2022-10-28T15:40:54.855Z,17.37
2022-10-28T15:46:10.285Z,17.43
2022-10-28T15:51:16.869Z,19.67
2022-10-28T15:56:24.988Z,18.20
2022-10-28T16:01:30.913Z,17.07
2022-10-28T16:06:37.813Z,20.00
2022-10-28T16:11:44.161Z,19.37
2022-10-28T16:16:47.728Z,20.57
2022-10-28T16:21:53.497Z,18.23
2022-10-28T16:27:13.585Z,21.27
2022-10-28T16:32:18.168Z,23.63
2022-10-28T16:37:25.688Z,21.17
2022-10-28T16:42:29.304Z,19.23
2022-10-28T16:47:33.048Z,19.70
2022-10-28T16:52:41.934Z,23.53
2022-10-28T16:57:45.516Z,29.27
2022-10-28T17:02:51.122Z,26.97
2022-10-28T17:07:58.137Z,25.23
2022-10-28T17:24:32.859Z,20.80
2022-10-28T17:40:57.617Z,22.37
2022-10-28T18:32:06.319Z,28.13
2022-10-28T18:37:11.857Z,26.50
2022-10-28T18:42:19.272Z,23.33
2022-10-28T18:47:27.112Z,24.20
2022-10-28T18:58:14.539Z,24.50
2022-10-28T19:03:22.292Z,21.87
2022-10-28T19:08:25.964Z,22.00
2022-10-28T19:25:08.625Z,25.93
2022-10-28T19:59:27.715Z,24.80
2022-10-28T20:56:51.870Z,23.33
